createdAt,value
2022-11-14T00:00:03.009Z,1009.02
2022-11-14T00:01:02.934Z,1008.94
2022-11-14T00:02:03.001Z,1008.92
2022-11-14T00:03:03.017Z,1008.95
2022-11-14T00:04:02.943Z,1008.97
2022-11-14T00:05:02.893Z,1008.98
2022-11-14T00:06:02.943Z,1009.03
2022-11-14T00:07:02.941Z,1009.01
2022-11-14T00:08:02.896Z,1009.03
2022-11-14T00:09:02.843Z,1009.00
2022-11-14T00:10:02.975Z,1008.99
2022-11-14T00:11:02.871Z,1009.00
2022-11-14T00:12:02.853Z,1008.96
2022-11-14T00:13:02.803Z,1008.98
2022-11-14T00:14:02.908Z,1008.97
2022-11-14T00:15:02.782Z,1008.97
2022-11-14T00:16:02.819Z,1008.96
2022-11-14T00:17:02.773Z,1008.99
2022-11-14T00:18:02.856Z,1008.98
2022-11-14T00:19:02.746Z,1008.97
2022-11-14T00:20:02.745Z,1009.02
2022-11-14T00:21:02.732Z,1008.98
2022-11-14T00:22:02.750Z,1008.98
2022-11-14T00:23:02.727Z,1008.96
2022-11-14T00:24:02.728Z,1008.94
2022-11-14T00:25:02.676Z,1008.94
2022-11-14T00:26:02.710Z,1008.94
2022-11-14T00:27:02.651Z,1008.93
2022-11-14T00:28:02.654Z,1008.94
2022-11-14T00:29:02.642Z,1008.91
2022-11-14T00:30:02.646Z,1008.93
2022-11-14T00:31:02.616Z,1008.91
2022-11-14T00:32:02.621Z,1008.92
2022-11-14T00:33:02.593Z,1008.88
2022-11-14T00:34:02.621Z,1008.87
2022-11-14T00:35:02.571Z,1008.85
2022-11-14T00:36:02.662Z,1008.87
2022-11-14T00:37:02.549Z,1008.79
2022-11-14T00:38:02.585Z,1008.78
2022-11-14T00:39:02.531Z,1008.80
2022-11-14T00:40:02.563Z,1008.74
2022-11-14T00:41:02.583Z,1008.73
2022-11-14T00:42:02.504Z,1008.68
2022-11-14T00:43:02.481Z,1008.69
2022-11-14T00:44:02.485Z,1008.69
2022-11-14T00:45:02.482Z,1008.69
2022-11-14T00:46:02.525Z,1008.69
2022-11-14T00:47:02.443Z,1008.65
2022-11-14T00:48:02.471Z,1008.70
2022-11-14T00:49:02.420Z,1008.66
2022-11-14T00:50:02.885Z,1008.65
2022-11-14T00:51:02.424Z,1008.69
2022-11-14T00:52:02.383Z,1008.65
2022-11-14T00:53:02.383Z,1008.68
2022-11-14T00:54:02.432Z,1008.71
2022-11-14T00:55:02.417Z,1008.70
2022-11-14T00:56:02.413Z,1008.69
2022-11-14T00:57:02.333Z,1008.68
2022-11-14T00:58:02.329Z,1008.64
2022-11-14T00:59:02.320Z,1008.62
2022-11-14T01:00:02.322Z,1008.68
2022-11-14T01:01:02.404Z,1008.64
2022-11-14T01:02:02.425Z,1008.64
2022-11-14T01:03:02.275Z,1008.61
2022-11-14T01:04:02.321Z,1008.59
2022-11-14T01:05:02.298Z,1008.60
2022-11-14T01:06:02.328Z,1008.58
2022-11-14T01:07:02.222Z,1008.54
2022-11-14T01:08:02.636Z,1008.55
2022-11-14T01:09:02.306Z,1008.53
2022-11-14T01:10:02.288Z,1008.55
2022-11-14T01:11:02.282Z,1008.53
2022-11-14T01:12:02.208Z,1008.54
2022-11-14T01:13:02.252Z,1008.54
2022-11-14T01:14:02.183Z,1008.54
2022-11-14T01:15:02.147Z,1008.54
2022-11-14T01:16:02.468Z,1008.55
2022-11-14T01:17:02.134Z,1008.53
2022-11-14T01:18:02.146Z,1008.52
2022-11-14T01:19:02.115Z,1008.55
2022-11-14T01:20:02.094Z,1008.53
2022-11-14T01:21:02.096Z,1008.52
2022-11-14T01:22:06.127Z,1008.50
2022-11-14T01:23:02.055Z,1008.50
2022-11-14T01:24:02.080Z,1008.49
2022-11-14T01:25:02.036Z,1008.55
2022-11-14T01:26:02.106Z,1008.51
2022-11-14T01:27:02.052Z,1008.50
2022-11-14T01:28:02.020Z,1008.45
2022-11-14T01:29:02.001Z,1008.49
2022-11-14T01:30:02.037Z,1008.45
2022-11-14T01:31:01.984Z,1008.47
2022-11-14T01:32:01.973Z,1008.44
2022-11-14T01:33:01.975Z,1008.42
2022-11-14T01:34:01.955Z,1008.40
2022-11-14T01:35:01.938Z,1008.42
2022-11-14T01:36:01.966Z,1008.40
2022-11-14T01:37:01.905Z,1008.37
2022-11-14T01:38:01.905Z,1008.36
2022-11-14T01:39:01.897Z,1008.34
2022-11-14T01:40:01.909Z,1008.34
2022-11-14T01:41:01.884Z,1008.33
2022-11-14T01:42:01.866Z,1008.30
2022-11-14T01:43:01.846Z,1008.32
2022-11-14T01:44:01.910Z,1008.29
2022-11-14T01:45:01.827Z,1008.29
2022-11-14T01:46:01.828Z,1008.27
2022-11-14T01:47:01.805Z,1008.28
2022-11-14T01:48:01.857Z,1008.27
2022-11-14T01:49:01.776Z,1008.22
2022-11-14T01:50:01.796Z,1008.27
2022-11-14T01:51:01.775Z,1008.26
2022-11-14T01:52:01.840Z,1008.25
2022-11-14T01:53:01.747Z,1008.26
2022-11-14T01:54:01.744Z,1008.27
2022-11-14T01:55:01.718Z,1008.20
2022-11-14T01:56:01.772Z,1008.20
2022-11-14T01:57:01.697Z,1008.17
2022-11-14T01:58:01.707Z,1008.15
2022-11-14T01:59:01.676Z,1008.14
2022-11-14T02:00:01.677Z,1008.15
2022-11-14T02:01:01.689Z,1008.15
2022-11-14T02:02:01.648Z,1008.07
2022-11-14T02:03:01.640Z,1008.08
2022-11-14T02:04:04.273Z,1008.08
2022-11-14T02:05:01.609Z,1008.06
2022-11-14T02:06:01.630Z,1008.11
2022-11-14T02:07:01.625Z,1008.08
2022-11-14T02:08:01.587Z,1008.11
2022-11-14T02:09:01.569Z,1008.10
2022-11-14T02:10:01.566Z,1008.14
2022-11-14T02:11:01.617Z,1008.15
2022-11-14T02:12:01.615Z,1008.11
2022-11-14T02:13:01.659Z,1008.10
2022-11-14T02:14:01.611Z,1008.09
2022-11-14T02:15:01.518Z,1008.12
2022-11-14T02:16:01.536Z,1008.09
2022-11-14T02:17:27.851Z,1008.09
2022-11-14T02:18:02.783Z,1008.09
2022-11-14T02:19:01.455Z,1008.07
2022-11-14T02:20:05.029Z,1008.10
2022-11-14T02:21:01.462Z,1008.08
2022-11-14T02:22:01.427Z,1008.09
2022-11-14T02:23:01.420Z,1008.07
2022-11-14T02:24:01.407Z,1008.12
2022-11-14T02:25:01.390Z,1008.12
2022-11-14T02:26:01.410Z,1008.14
2022-11-14T02:27:01.368Z,1008.10
2022-11-14T02:28:01.381Z,1008.09
2022-11-14T02:29:01.349Z,1008.10
2022-11-14T02:30:01.349Z,1008.07
2022-11-14T02:31:01.340Z,1008.06
2022-11-14T02:32:01.329Z,1008.09
2022-11-14T02:33:16.548Z,1008.08
2022-11-14T02:34:02.333Z,1008.10
2022-11-14T02:35:01.288Z,1008.09
2022-11-14T02:36:01.308Z,1008.06
2022-11-14T02:37:01.268Z,1008.05
2022-11-14T02:38:01.288Z,1008.06
2022-11-14T02:39:01.249Z,1008.04
2022-11-14T02:40:01.228Z,1008.01
2022-11-14T02:41:01.230Z,1008.04
2022-11-14T02:42:01.219Z,1008.05
2022-11-14T02:43:01.203Z,1008.02
2022-11-14T02:44:01.198Z,1008.05
2022-11-14T02:45:01.184Z,1008.07
2022-11-14T02:46:05.419Z,1008.07
2022-11-14T02:47:01.157Z,1008.03
2022-11-14T02:48:01.148Z,1008.01
2022-11-14T02:49:01.131Z,1008.03
2022-11-14T02:50:01.132Z,1007.99
2022-11-14T02:51:01.130Z,1007.99
2022-11-14T02:52:01.108Z,1008.01
2022-11-14T02:53:01.097Z,1007.98
2022-11-14T02:54:01.080Z,1007.98
2022-11-14T02:55:01.070Z,1008.00
2022-11-14T02:56:01.081Z,1008.03
2022-11-14T02:57:01.051Z,1007.99
2022-11-14T02:58:01.189Z,1007.98
2022-11-14T02:59:01.032Z,1008.00
2022-11-14T03:00:01.034Z,1007.98
2022-11-14T03:01:19.765Z,1007.95
2022-11-14T03:02:02.092Z,1007.99
2022-11-14T03:03:00.991Z,1007.98
2022-11-14T03:04:00.997Z,1007.98
2022-11-14T03:05:00.960Z,1007.97
2022-11-14T03:06:01.928Z,1007.99
2022-11-14T03:07:01.035Z,1008.00
2022-11-14T03:08:00.941Z,1007.97
2022-11-14T03:09:00.929Z,1007.96
2022-11-14T03:10:00.910Z,1007.93
2022-11-14T03:11:00.908Z,1007.95
2022-11-14T03:12:00.879Z,1007.93
2022-11-14T03:13:00.883Z,1007.87
2022-11-14T03:14:01.076Z,1007.85
2022-11-14T03:15:00.863Z,1007.87
2022-11-14T03:16:00.850Z,1007.88
2022-11-14T03:17:00.830Z,1007.89
2022-11-14T03:18:00.830Z,1007.88
2022-11-14T03:19:00.811Z,1007.84
2022-11-14T03:20:00.798Z,1007.85
2022-11-14T03:21:00.810Z,1007.87
2022-11-14T03:22:00.827Z,1007.86
2022-11-14T03:23:00.771Z,1007.85
2022-11-14T03:24:00.762Z,1007.81
2022-11-14T03:25:00.749Z,1007.83
2022-11-14T03:26:00.751Z,1007.83
2022-11-14T03:27:00.729Z,1007.79
2022-11-14T03:28:00.732Z,1007.79
2022-11-14T03:29:00.714Z,1007.82
2022-11-14T03:30:00.870Z,1007.77
2022-11-14T03:31:00.690Z,1007.75
2022-11-14T03:32:00.670Z,1007.79
2022-11-14T03:33:00.673Z,1007.75
2022-11-14T03:34:00.649Z,1007.71
2022-11-14T03:35:00.663Z,1007.74
2022-11-14T03:36:00.641Z,1007.72
2022-11-14T03:37:00.621Z,1007.68
2022-11-14T03:38:00.659Z,1007.70
2022-11-14T03:39:00.613Z,1007.70
2022-11-14T03:40:00.622Z,1007.69
2022-11-14T03:41:00.633Z,1007.69
2022-11-14T03:42:00.601Z,1007.68
2022-11-14T03:43:00.561Z,1007.67
2022-11-14T03:44:00.563Z,1007.71
2022-11-14T03:45:00.560Z,1007.72
2022-11-14T03:46:00.594Z,1007.69
2022-11-14T03:47:00.523Z,1007.65
2022-11-14T03:48:00.582Z,1007.66
2022-11-14T03:49:00.551Z,1007.68
2022-11-14T03:50:00.493Z,1007.66
2022-11-14T03:51:00.483Z,1007.65
2022-11-14T03:52:00.454Z,1007.67
2022-11-14T03:53:00.488Z,1007.65
2022-11-14T03:54:00.492Z,1007.67
2022-11-14T03:55:00.431Z,1007.62
2022-11-14T03:56:00.643Z,1007.62
2022-11-14T03:57:00.416Z,1007.61
2022-11-14T03:58:00.394Z,1007.62
2022-11-14T03:59:00.392Z,1007.59
2022-11-14T04:00:00.372Z,1007.58
2022-11-14T04:01:00.447Z,1007.53
2022-11-14T04:02:00.385Z,1007.55
2022-11-14T04:03:00.354Z,1007.55
2022-11-14T04:04:00.323Z,1007.53
2022-11-14T04:05:00.343Z,1007.53
2022-11-14T04:06:00.314Z,1007.58
2022-11-14T04:07:00.348Z,1007.55
2022-11-14T04:08:00.332Z,1007.55
2022-11-14T04:09:00.292Z,1007.53
2022-11-14T04:10:00.362Z,1007.50
2022-11-14T04:11:00.262Z,1007.54
2022-11-14T04:12:00.413Z,1007.41
2022-11-14T04:13:00.249Z,1007.43
2022-11-14T04:14:00.222Z,1007.44
2022-11-14T04:15:00.359Z,1007.44
2022-11-14T04:16:00.221Z,1007.42
2022-11-14T04:17:00.226Z,1007.46
2022-11-14T04:18:00.203Z,1007.44
2022-11-14T04:19:00.211Z,1007.45
2022-11-14T04:20:00.204Z,1007.48
2022-11-14T04:21:00.157Z,1007.46
2022-11-14T04:22:00.153Z,1007.45
2022-11-14T04:23:00.144Z,1007.43
2022-11-14T04:24:00.125Z,1007.44
2022-11-14T04:25:00.124Z,1007.40
2022-11-14T04:26:00.095Z,1007.41
2022-11-14T04:27:00.100Z,1007.45
2022-11-14T04:28:00.079Z,1007.41
2022-11-14T04:29:00.064Z,1007.40
2022-11-14T04:30:00.089Z,1007.35
2022-11-14T04:31:00.044Z,1007.37
2022-11-14T04:32:00.045Z,1007.35
2022-11-14T04:33:00.016Z,1007.33
2022-11-14T04:34:00.021Z,1007.40
2022-11-14T04:35:00.043Z,1007.39
2022-11-14T04:35:59.995Z,1007.38
2022-11-14T04:36:59.976Z,1007.39
2022-11-14T04:37:59.984Z,1007.33
2022-11-14T04:38:59.966Z,1007.35
2022-11-14T04:39:59.965Z,1007.31
2022-11-14T04:40:59.939Z,1007.32
2022-11-14T04:41:59.965Z,1007.29
2022-11-14T04:42:59.915Z,1007.32
2022-11-14T04:43:59.905Z,1007.29
2022-11-14T04:44:59.911Z,1007.29
2022-11-14T04:45:59.894Z,1007.27
2022-11-14T04:46:59.874Z,1007.24
2022-11-14T04:47:59.875Z,1007.23
2022-11-14T04:48:59.854Z,1007.22
2022-11-14T04:49:59.985Z,1007.24
2022-11-14T04:50:59.871Z,1007.27
2022-11-14T04:51:59.828Z,1007.26
2022-11-14T04:52:59.816Z,1007.26
2022-11-14T04:53:59.807Z,1007.30
2022-11-14T04:54:59.805Z,1007.32
2022-11-14T04:55:59.784Z,1007.33
2022-11-14T04:56:59.766Z,1007.37
2022-11-14T04:57:59.756Z,1007.36
2022-11-14T04:58:59.747Z,1007.36
2022-11-14T04:59:59.755Z,1007.36
2022-11-14T05:00:59.770Z,1007.34
2022-11-14T05:01:59.716Z,1007.34
2022-11-14T05:02:59.705Z,1007.33
2022-11-14T05:03:59.686Z,1007.30
2022-11-14T05:04:59.698Z,1007.29
2022-11-14T05:05:59.669Z,1007.30
2022-11-14T05:06:59.699Z,1007.31
2022-11-14T05:07:59.647Z,1007.27
2022-11-14T05:08:59.637Z,1007.30
2022-11-14T05:09:59.665Z,1007.28
2022-11-14T05:10:59.615Z,1007.29
2022-11-14T05:11:59.608Z,1007.24
2022-11-14T05:12:59.586Z,1007.27
2022-11-14T05:13:59.596Z,1007.28
2022-11-14T05:14:59.596Z,1007.25
2022-11-14T05:15:59.569Z,1007.24
2022-11-14T05:16:59.549Z,1007.23
2022-11-14T05:17:59.544Z,1007.23
2022-11-14T05:18:59.526Z,1007.28
2022-11-14T05:19:59.548Z,1007.27
2022-11-14T05:20:59.514Z,1007.30
2022-11-14T05:21:59.508Z,1007.27
2022-11-14T05:22:59.491Z,1007.26
2022-11-14T05:23:59.487Z,1007.28
2022-11-14T05:24:59.468Z,1007.28
2022-11-14T05:25:59.456Z,1007.30
2022-11-14T05:26:59.439Z,1007.25
2022-11-14T05:27:59.436Z,1007.19
2022-11-14T05:28:59.427Z,1007.17
2022-11-14T05:29:59.433Z,1007.12
2022-11-14T05:30:59.397Z,1007.09
2022-11-14T05:31:59.409Z,1007.14
2022-11-14T05:32:59.381Z,1007.12
2022-11-14T05:33:59.382Z,1007.14
2022-11-14T05:34:59.369Z,1007.12
2022-11-14T05:35:59.357Z,1007.10
2022-11-14T05:36:59.331Z,1007.11
2022-11-14T05:38:00.171Z,1007.08
2022-11-14T05:38:59.318Z,1007.10
2022-11-14T05:39:59.318Z,1007.07
2022-11-14T05:40:59.290Z,1007.08
2022-11-14T05:41:59.289Z,1007.05
2022-11-14T05:42:59.271Z,1007.07
2022-11-14T05:43:59.269Z,1007.04
2022-11-14T05:44:59.293Z,1007.07
2022-11-14T05:45:59.251Z,1007.05
2022-11-14T05:46:59.228Z,1007.03
2022-11-14T05:47:59.220Z,1007.04
2022-11-14T05:48:59.202Z,1007.00
2022-11-14T05:49:59.218Z,1006.95
2022-11-14T05:50:59.200Z,1006.94
2022-11-14T05:51:59.180Z,1006.98
2022-11-14T05:52:59.171Z,1006.95
2022-11-14T05:53:59.189Z,1006.95
2022-11-14T05:54:59.148Z,1006.94
2022-11-14T05:55:59.139Z,1006.96
2022-11-14T05:56:59.189Z,1006.97
2022-11-14T05:57:59.119Z,1006.95
2022-11-14T05:58:59.117Z,1006.97
2022-11-14T05:59:59.120Z,1006.97
2022-11-14T06:00:59.094Z,1006.92
2022-11-14T06:01:59.126Z,1006.98
2022-11-14T06:02:59.060Z,1006.91
2022-11-14T06:03:59.050Z,1006.94
2022-11-14T06:04:59.101Z,1006.93
2022-11-14T06:05:59.031Z,1006.89
2022-11-14T06:06:59.082Z,1006.89
2022-11-14T06:07:59.023Z,1006.92
2022-11-14T06:08:59.001Z,1006.89
2022-11-14T06:09:59.000Z,1006.87
2022-11-14T06:10:58.979Z,1006.90
2022-11-14T06:11:58.962Z,1006.87
2022-11-14T06:12:58.951Z,1006.81
2022-11-14T06:13:58.940Z,1006.77
2022-11-14T06:14:59.182Z,1006.83
2022-11-14T06:15:58.918Z,1006.85
2022-11-14T06:16:58.924Z,1006.86
2022-11-14T06:17:58.901Z,1006.89
2022-11-14T06:18:58.909Z,1006.89
2022-11-14T06:19:58.901Z,1006.86
2022-11-14T06:20:58.896Z,1006.78
2022-11-14T06:21:58.853Z,1006.79
2022-11-14T06:22:58.853Z,1006.83
2022-11-14T06:23:58.833Z,1006.85
2022-11-14T06:24:58.831Z,1006.82
2022-11-14T06:25:58.824Z,1006.88
2022-11-14T06:26:58.850Z,1006.85
2022-11-14T06:27:58.780Z,1006.84
2022-11-14T06:28:58.792Z,1006.89
2022-11-14T06:29:58.783Z,1006.86
2022-11-14T06:30:58.760Z,1006.89
2022-11-14T06:31:58.752Z,1006.87
2022-11-14T06:32:58.856Z,1006.85
2022-11-14T06:33:58.723Z,1006.86
2022-11-14T06:34:58.722Z,1006.89
2022-11-14T06:35:58.728Z,1006.88
2022-11-14T06:36:58.701Z,1006.89
2022-11-14T06:37:58.683Z,1006.90
2022-11-14T06:38:58.782Z,1006.90
2022-11-14T06:39:58.670Z,1006.90
2022-11-14T06:40:58.795Z,1006.91
2022-11-14T06:41:58.654Z,1006.91
2022-11-14T06:42:58.643Z,1006.90
2022-11-14T06:43:58.623Z,1006.88
2022-11-14T06:44:58.644Z,1006.86
2022-11-14T06:45:58.592Z,1006.76
2022-11-14T06:46:59.131Z,1006.78
2022-11-14T06:47:58.572Z,1006.75
2022-11-14T06:48:58.565Z,1006.72
2022-11-14T06:49:58.573Z,1006.74
2022-11-14T06:50:58.553Z,1006.75
2022-11-14T06:51:58.535Z,1006.78
2022-11-14T06:52:58.553Z,1006.78
2022-11-14T06:53:58.531Z,1006.74
2022-11-14T06:54:58.693Z,1006.75
2022-11-14T06:55:58.513Z,1006.76
2022-11-14T06:56:58.486Z,1006.73
2022-11-14T06:57:58.474Z,1006.77
2022-11-14T06:58:58.464Z,1006.80
2022-11-14T06:59:58.544Z,1006.79
2022-11-14T07:00:58.434Z,1006.79
2022-11-14T07:01:58.426Z,1006.77
2022-11-14T07:02:58.465Z,1006.75
2022-11-14T07:03:58.394Z,1006.76
2022-11-14T07:04:58.547Z,1006.73
2022-11-14T07:05:58.385Z,1006.77
2022-11-14T07:06:58.397Z,1006.74
2022-11-14T07:07:58.365Z,1006.78
2022-11-14T07:08:58.356Z,1006.72
2022-11-14T07:09:58.343Z,1006.74
2022-11-14T07:10:58.333Z,1006.74
2022-11-14T07:11:58.325Z,1006.77
2022-11-14T07:12:58.550Z,1006.73
2022-11-14T07:13:58.296Z,1006.74
2022-11-14T07:14:58.316Z,1006.74
2022-11-14T07:15:58.276Z,1006.68
2022-11-14T07:16:58.269Z,1006.70
2022-11-14T07:17:58.245Z,1006.67
2022-11-14T07:18:58.247Z,1006.75
2022-11-14T07:19:58.223Z,1006.75
2022-11-14T07:20:58.217Z,1006.77
2022-11-14T07:21:58.196Z,1006.79
2022-11-14T07:22:58.216Z,1006.75
2022-11-14T07:23:58.198Z,1006.82
2022-11-14T07:24:58.176Z,1006.79
2022-11-14T07:25:58.165Z,1006.81
2022-11-14T07:26:58.146Z,1006.83
2022-11-14T07:27:58.135Z,1006.82
2022-11-14T07:29:02.537Z,1006.81
2022-11-14T07:29:58.109Z,1006.84
2022-11-14T07:30:58.104Z,1006.82
2022-11-14T07:31:58.086Z,1006.84
2022-11-14T07:32:58.088Z,1006.76
2022-11-14T07:33:58.085Z,1006.77
2022-11-14T07:35:02.104Z,1006.78
2022-11-14T07:35:58.077Z,1006.78
2022-11-14T07:36:58.036Z,1006.81
2022-11-14T07:37:58.048Z,1006.82
2022-11-14T07:38:58.029Z,1006.84
2022-11-14T07:39:58.018Z,1006.80
2022-11-14T07:40:59.935Z,1006.84
2022-11-14T07:41:57.987Z,1006.83
2022-11-14T07:42:57.967Z,1006.86
2022-11-14T07:43:58.088Z,1006.84
2022-11-14T07:44:57.956Z,1006.82
2022-11-14T07:45:58.118Z,1006.80
2022-11-14T07:46:57.931Z,1006.79
2022-11-14T07:47:57.988Z,1006.83
2022-11-14T07:48:58.037Z,1006.80
2022-11-14T07:49:57.938Z,1006.81
2022-11-14T07:50:57.888Z,1006.75
2022-11-14T07:51:57.878Z,1006.73
2022-11-14T07:52:57.892Z,1006.74
2022-11-14T07:53:57.969Z,1006.81
2022-11-14T07:54:57.839Z,1006.81
2022-11-14T07:55:57.828Z,1006.80
2022-11-14T07:56:57.834Z,1006.76
2022-11-14T07:57:57.799Z,1006.79
2022-11-14T07:58:57.808Z,1006.82
2022-11-14T07:59:57.799Z,1006.87
2022-11-14T08:00:57.780Z,1006.77
2022-11-14T08:01:57.764Z,1006.77
2022-11-14T08:02:57.801Z,1006.77
2022-11-14T08:03:57.744Z,1006.78
2022-11-14T08:04:57.749Z,1006.77
2022-11-14T08:05:57.740Z,1006.75
2022-11-14T08:06:57.757Z,1006.76
2022-11-14T08:07:57.698Z,1006.75
2022-11-14T08:08:57.719Z,1006.75
2022-11-14T08:09:57.671Z,1006.69
2022-11-14T08:10:57.674Z,1006.69
2022-11-14T08:11:57.656Z,1006.69
2022-11-14T08:13:17.590Z,1006.72
2022-11-14T08:13:58.639Z,1006.69
2022-11-14T08:14:57.622Z,1006.68
2022-11-14T08:15:57.692Z,1006.66
2022-11-14T08:16:57.624Z,1006.60
2022-11-14T08:17:57.581Z,1006.55
2022-11-14T08:18:57.579Z,1006.50
2022-11-14T08:19:57.561Z,1006.46
2022-11-14T08:20:57.583Z,1006.50
2022-11-14T08:21:57.541Z,1006.45
2022-11-14T08:22:57.553Z,1006.45
2022-11-14T08:23:57.632Z,1006.49
2022-11-14T08:24:57.521Z,1006.47
2022-11-14T08:25:57.512Z,1006.45
2022-11-14T08:26:57.503Z,1006.45
2022-11-14T08:27:57.476Z,1006.39
2022-11-14T08:28:57.483Z,1006.35
2022-11-14T08:29:57.470Z,1006.26
2022-11-14T08:30:57.442Z,1006.30
2022-11-14T08:32:00.118Z,1006.27
2022-11-14T08:32:57.426Z,1006.25
2022-11-14T08:33:57.602Z,1006.26
2022-11-14T08:34:57.408Z,1006.28
2022-11-14T08:35:57.401Z,1006.31
2022-11-14T08:36:57.477Z,1006.32
2022-11-14T08:37:57.369Z,1006.34
2022-11-14T08:39:01.576Z,1006.33
2022-11-14T08:39:57.374Z,1006.39
2022-11-14T08:40:57.334Z,1006.34
2022-11-14T08:41:57.384Z,1006.37
2022-11-14T08:42:57.326Z,1006.35
2022-11-14T08:43:57.320Z,1006.40
2022-11-14T08:44:57.295Z,1006.38
2022-11-14T08:46:01.046Z,1006.42
2022-11-14T08:46:57.268Z,1006.41
2022-11-14T08:47:57.275Z,1006.40
2022-11-14T08:48:57.256Z,1006.43
2022-11-14T08:49:57.237Z,1006.44
2022-11-14T08:50:57.228Z,1006.40
2022-11-14T08:51:57.215Z,1006.42
2022-11-14T08:52:57.203Z,1006.44
2022-11-14T08:53:57.205Z,1006.42
2022-11-14T08:54:57.192Z,1006.39
2022-11-14T08:55:57.186Z,1006.48
2022-11-14T08:56:57.189Z,1006.41
2022-11-14T08:57:57.146Z,1006.42
2022-11-14T08:58:57.145Z,1006.43
2022-11-14T08:59:57.128Z,1006.45
2022-11-14T09:00:57.121Z,1006.45
2022-11-14T09:01:57.106Z,1006.52
2022-11-14T09:02:57.136Z,1006.52
2022-11-14T09:04:00.045Z,1006.47
2022-11-14T09:04:57.104Z,1006.50
2022-11-14T09:05:57.076Z,1006.51
2022-11-14T09:06:57.080Z,1006.49
2022-11-14T09:07:57.057Z,1006.52
2022-11-14T09:08:57.039Z,1006.53
2022-11-14T09:09:57.027Z,1006.53
2022-11-14T09:10:59.183Z,1006.55
2022-11-14T09:11:58.000Z,1006.57
2022-11-14T09:12:57.000Z,1006.58
2022-11-14T09:13:56.986Z,1006.60
2022-11-14T09:14:56.964Z,1006.57
2022-11-14T09:15:56.958Z,1006.54
2022-11-14T09:16:59.633Z,1006.59
2022-11-14T09:17:57.931Z,1006.60
2022-11-14T09:18:56.929Z,1006.64
2022-11-14T09:19:56.908Z,1006.58
2022-11-14T09:20:56.902Z,1006.59
2022-11-14T09:21:56.882Z,1006.58
2022-11-14T09:22:56.889Z,1006.60
2022-11-14T09:24:00.649Z,1006.56
2022-11-14T09:24:57.849Z,1006.45
2022-11-14T09:25:56.840Z,1006.45
2022-11-14T09:26:57.376Z,1006.45
2022-11-14T09:27:56.811Z,1006.40
2022-11-14T09:28:56.827Z,1006.44
2022-11-14T09:29:56.814Z,1006.43
2022-11-14T09:30:56.801Z,1006.42
2022-11-14T09:31:56.773Z,1006.39
2022-11-14T09:32:56.763Z,1006.36
2022-11-14T09:33:56.764Z,1006.39
2022-11-14T09:34:56.745Z,1006.38
2022-11-14T09:35:56.732Z,1006.38
2022-11-14T09:36:56.731Z,1006.36
2022-11-14T09:37:56.705Z,1006.34
2022-11-14T09:38:56.727Z,1006.39
2022-11-14T09:39:56.684Z,1006.37
2022-11-14T09:40:56.687Z,1006.42
2022-11-14T09:41:56.665Z,1006.40
2022-11-14T09:42:56.662Z,1006.45
2022-11-14T09:43:56.659Z,1006.39
2022-11-14T09:44:56.641Z,1006.41
2022-11-14T09:45:56.625Z,1006.40
2022-11-14T09:46:56.665Z,1006.43
2022-11-14T09:47:56.633Z,1006.43
2022-11-14T09:48:56.593Z,1006.42
2022-11-14T09:49:56.595Z,1006.38
2022-11-14T09:50:56.575Z,1006.39
2022-11-14T09:51:56.554Z,1006.39
2022-11-14T09:52:56.554Z,1006.37
2022-11-14T09:53:56.548Z,1006.37
2022-11-14T09:54:56.526Z,1006.36
2022-11-14T09:55:56.525Z,1006.37
2022-11-14T09:56:56.505Z,1006.37
2022-11-14T09:57:56.495Z,1006.41
2022-11-14T09:58:56.490Z,1006.39
2022-11-14T09:59:56.494Z,1006.35
2022-11-14T10:00:56.475Z,1006.35
2022-11-14T10:01:56.527Z,1006.26
2022-11-14T10:02:56.455Z,1006.26
2022-11-14T10:03:56.426Z,1006.28
2022-11-14T10:04:56.418Z,1006.27
2022-11-14T10:05:56.427Z,1006.31
2022-11-14T10:06:56.419Z,1006.22
2022-11-14T10:07:56.397Z,1006.26
2022-11-14T10:08:56.375Z,1006.20
2022-11-14T10:09:56.366Z,1006.09
2022-11-14T10:10:56.348Z,1006.11
2022-11-14T10:11:56.347Z,1006.11
2022-11-14T10:12:56.347Z,1006.13
2022-11-14T10:13:56.350Z,1006.08
2022-11-14T10:14:56.339Z,1006.16
2022-11-14T10:15:56.291Z,1006.13
2022-11-14T10:16:56.300Z,1006.16
2022-11-14T10:17:56.289Z,1006.19
2022-11-14T10:18:56.292Z,1006.23
2022-11-14T10:19:56.279Z,1006.22
2022-11-14T10:20:56.250Z,1006.25
2022-11-14T10:21:56.236Z,1006.23
2022-11-14T10:23:01.154Z,1006.24
2022-11-14T10:23:57.230Z,1006.19
2022-11-14T10:24:56.215Z,1006.23
2022-11-14T10:25:56.188Z,1006.23
2022-11-14T10:26:56.190Z,1006.24
2022-11-14T10:28:00.968Z,1006.28
2022-11-14T10:28:57.162Z,1006.24
2022-11-14T10:29:56.141Z,1006.28
2022-11-14T10:30:56.129Z,1006.25
2022-11-14T10:31:56.111Z,1006.26
2022-11-14T10:32:56.115Z,1006.28
2022-11-14T10:33:56.113Z,1006.23
2022-11-14T10:34:56.100Z,1006.17
2022-11-14T10:35:56.071Z,1006.26
2022-11-14T10:36:56.064Z,1006.25
2022-11-14T10:37:56.252Z,1006.29
2022-11-14T10:38:56.053Z,1006.26
2022-11-14T10:39:56.139Z,1006.27
2022-11-14T10:40:56.036Z,1006.23
2022-11-14T10:42:00.731Z,1006.24
2022-11-14T10:42:57.012Z,1006.28
2022-11-14T10:43:55.983Z,1006.27
2022-11-14T10:44:55.993Z,1006.20
2022-11-14T10:45:55.962Z,1006.22
2022-11-14T10:46:55.959Z,1006.25
2022-11-14T10:47:55.954Z,1006.26
2022-11-14T10:49:00.021Z,1006.25
2022-11-14T10:49:55.916Z,1006.26
2022-11-14T10:50:55.913Z,1006.27
2022-11-14T10:51:55.899Z,1006.24
2022-11-14T10:52:55.917Z,1006.24
2022-11-14T10:53:55.876Z,1006.21
2022-11-14T10:54:55.867Z,1006.15
2022-11-14T10:56:04.074Z,1006.17
2022-11-14T10:56:56.847Z,1006.15
2022-11-14T10:57:55.845Z,1006.16
2022-11-14T10:58:55.898Z,1006.13
2022-11-14T10:59:55.807Z,1006.13
2022-11-14T11:00:55.895Z,1006.10
2022-11-14T11:01:55.798Z,1006.05
2022-11-14T11:02:55.787Z,1006.14
2022-11-14T11:03:55.813Z,1006.08
2022-11-14T11:04:55.758Z,1006.05
2022-11-14T11:05:55.748Z,1006.05
2022-11-14T11:06:55.924Z,1006.02
2022-11-14T11:07:55.718Z,1006.02
2022-11-14T11:08:55.762Z,1006.00
2022-11-14T11:09:55.723Z,1005.98
2022-11-14T11:10:55.689Z,1005.95
2022-11-14T11:11:55.668Z,1005.90
2022-11-14T11:12:55.673Z,1005.87
2022-11-14T11:13:55.667Z,1005.90
2022-11-14T11:14:55.738Z,1005.90
2022-11-14T11:15:55.636Z,1005.89
2022-11-14T11:16:55.809Z,1005.86
2022-11-14T11:17:55.608Z,1005.88
2022-11-14T11:18:55.619Z,1005.90
2022-11-14T11:19:55.592Z,1005.91
2022-11-14T11:20:55.598Z,1005.91
2022-11-14T11:21:55.561Z,1005.85
2022-11-14T11:22:58.535Z,1005.91
2022-11-14T11:23:55.550Z,1005.86
2022-11-14T11:24:55.620Z,1005.84
2022-11-14T11:25:55.519Z,1005.85
2022-11-14T11:26:55.512Z,1005.89
2022-11-14T11:27:55.492Z,1005.81
2022-11-14T11:28:55.501Z,1005.82
2022-11-14T11:29:55.480Z,1005.79
2022-11-14T11:30:55.460Z,1005.75
2022-11-14T11:31:55.453Z,1005.79
2022-11-14T11:32:55.483Z,1005.82
2022-11-14T11:33:55.442Z,1005.77
2022-11-14T11:34:55.422Z,1005.80
2022-11-14T11:35:55.404Z,1005.73
2022-11-14T11:36:55.408Z,1005.77
2022-11-14T11:37:55.433Z,1005.75
2022-11-14T11:38:55.413Z,1005.75
2022-11-14T11:39:55.398Z,1005.71
2022-11-14T11:40:55.374Z,1005.68
2022-11-14T11:42:09.405Z,1005.70
2022-11-14T11:43:57.207Z,1005.69
2022-11-14T11:44:55.333Z,1005.61
2022-11-14T11:45:55.294Z,1005.62
2022-11-14T11:46:55.292Z,1005.60
2022-11-14T11:47:55.293Z,1005.56
2022-11-14T11:48:55.275Z,1005.53
2022-11-14T11:49:55.288Z,1005.44
2022-11-14T11:50:55.247Z,1005.45
2022-11-14T11:51:55.229Z,1005.36
2022-11-14T11:52:55.226Z,1005.31
2022-11-14T11:53:55.245Z,1005.27
2022-11-14T11:54:55.198Z,1005.26
2022-11-14T11:55:55.266Z,1005.30
2022-11-14T11:56:55.183Z,1005.31
2022-11-14T11:57:55.348Z,1005.30
2022-11-14T11:58:55.177Z,1005.31
2022-11-14T11:59:55.248Z,1005.28
2022-11-14T12:00:55.134Z,1005.29
2022-11-14T12:01:55.308Z,1005.27
2022-11-14T12:02:55.189Z,1005.25
2022-11-14T12:03:55.229Z,1005.16
2022-11-14T12:04:55.096Z,1005.16
2022-11-14T12:05:55.117Z,1005.15